Time;durP1;ratioP1;P1;durP2;ratioP2;P2;SDS_P1;SDS_P2;PMS_P1;PMS_P2;Temp;Humidity;BMP_temperature;BMP_pressure;BME280_temperature;BME280_humidity;BME280_pressure;Samples;Min_cycle;Max_cycle;Signal;HPM_P1;HPM_P2
2021/06/20 00:00:30;;;;;;;48.05;29.05;;;;;;;;;;4422465;32;20179;-70
2021/06/20 00:02:55;;;;;;;49.92;28.90;;;;;;;;;;4417601;32;20267;-70
2021/06/20 00:05:23;;;;;;;55.05;30.73;;;;;;;;;;4419931;32;20169;-70
2021/06/20 00:07:49;;;;;;;47.85;28.62;;;;;;;;;;4433981;32;20217;-70
2021/06/20 00:10:16;;;;;;;48.87;29.45;;;;;;;;;;4418163;32;20499;-70
2021/06/20 00:12:41;;;;;;;56.08;32.05;;;;;;;;;;4429713;32;20162;-70
2021/06/20 00:15:09;;;;;;;53.38;30.33;;;;;;;;;;4436149;32;20638;-71
2021/06/20 00:17:34;;;;;;;57.70;30.92;;;;;;;;;;4433793;32;20169;-70
2021/06/20 00:19:59;;;;;;;43.53;26.25;;;;;;;;;;4420334;32;20218;-70
2021/06/20 00:22:25;;;;;;;48.92;27.60;;;;;;;;;;4427843;32;20193;-70
2021/06/20 00:24:50;;;;;;;58.97;31.33;;;;;;;;;;4410846;32;20208;-70
2021/06/20 00:27:15;;;;;;;47.22;26.90;;;;;;;;;;4428770;32;20670;-70
2021/06/20 00:29:40;;;;;;;47.03;26.73;;;;;;;;;;4421031;32;20157;-70
2021/06/20 00:32:06;;;;;;;42.17;26.00;;;;;;;;;;4419394;32;20640;-70
2021/06/20 00:34:31;;;;;;;44.00;26.10;;;;;;;;;;4423947;32;20257;-70
2021/06/20 00:36:56;;;;;;;56.92;29.63;;;;;;;;;;4428821;32;20196;-70
2021/06/20 00:39:21;;;;;;;54.03;30.67;;;;;;;;;;4430427;32;20693;-70
2021/06/20 00:41:46;;;;;;;65.62;33.33;;;;;;;;;;4418879;32;20291;-70
2021/06/20 00:44:12;;;;;;;44.13;26.95;;;;;;;;;;4421006;32;20276;-70
2021/06/20 00:46:37;;;;;;;41.90;25.25;;;;;;;;;;4406017;32;20249;-70
2021/06/20 00:49:02;;;;;;;48.33;27.63;;;;;;;;;;4422527;32;20173;-70
2021/06/20 00:51:27;;;;;;;48.85;27.52;;;;;;;;;;4436095;32;20268;-70
2021/06/20 00:53:53;;;;;;;43.35;24.70;;;;;;;;;;4436498;32;20563;-70
2021/06/20 00:56:19;;;;;;;37.42;22.02;;;;;;;;;;4434818;32;20157;-71
2021/06/20 00:58:44;;;;;;;30.88;21.08;;;;;;;;;;4420481;32;20173;-70
2021/06/20 01:01:09;;;;;;;31.80;19.33;;;;;;;;;;4434385;32;20195;-70
2021/06/20 01:03:34;;;;;;;33.80;19.30;;;;;;;;;;4420189;32;20243;-70
2021/06/20 01:06:00;;;;;;;26.80;17.92;;;;;;;;;;4435789;32;20927;-71
2021/06/20 01:08:26;;;;;;;32.67;20.25;;;;;;;;;;4425810;32;20192;-71
2021/06/20 01:10:51;;;;;;;28.27;17.37;;;;;;;;;;4408633;32;20224;-70
2021/06/20 01:13:17;;;;;;;29.92;18.10;;;;;;;;;;4435672;32;20176;-70
2021/06/20 01:15:44;;;;;;;30.10;19.60;;;;;;;;;;4435762;32;20201;-72
2021/06/20 01:18:09;;;;;;;37.35;22.08;;;;;;;;;;4420064;32;20180;-71
2021/06/20 01:20:35;;;;;;;28.12;17.60;;;;;;;;;;4434104;32;20141;-70
2021/06/20 01:23:00;;;;;;;26.27;16.75;;;;;;;;;;4424671;32;20211;-71
2021/06/20 01:25:26;;;;;;;25.67;16.50;;;;;;;;;;4426334;32;20154;-72
2021/06/20 01:27:53;;;;;;;30.45;16.98;;;;;;;;;;4430061;32;20628;-71
2021/06/20 01:30:19;;;;;;;22.02;13.70;;;;;;;;;;4424975;32;20184;-69
2021/06/20 01:32:44;;;;;;;27.92;14.60;;;;;;;;;;4436187;32;20180;-70
2021/06/20 01:35:11;;;;;;;22.20;12.93;;;;;;;;;;4436484;32;20142;-71
2021/06/20 01:37:36;;;;;;;13.18;8.90;;;;;;;;;;4420533;32;20637;-70
2021/06/20 01:40:02;;;;;;;13.48;7.93;;;;;;;;;;4431428;32;20177;-71
2021/06/20 01:42:27;;;;;;;16.58;8.43;;;;;;;;;;4432891;32;20165;-70
2021/06/20 01:44:55;;;;;;;9.88;6.50;;;;;;;;;;4434650;32;20590;-71
2021/06/20 01:47:23;;;;;;;13.65;8.23;;;;;;;;;;4427269;32;20158;-70
2021/06/20 01:49:49;;;;;;;10.02;7.30;;;;;;;;;;4421487;32;20523;-72
2021/06/20 01:52:18;;;;;;;12.63;9.50;;;;;;;;;;4432981;32;20771;-71
2021/06/20 01:54:53;;;;;;;12.73;10.07;;;;;;;;;;4420060;32;20146;-72
2021/06/20 01:57:23;;;;;;;10.98;8.65;;;;;;;;;;4421932;32;20161;-71
2021/06/20 01:59:49;;;;;;;11.38;9.07;;;;;;;;;;4419927;32;20225;-71
2021/06/20 02:02:14;;;;;;;12.52;10.55;;;;;;;;;;4418560;32;20169;-71
2021/06/20 02:04:40;;;;;;;12.07;9.02;;;;;;;;;;4429984;32;20202;-71
2021/06/20 02:07:09;;;;;;;11.10;9.50;;;;;;;;;;4433401;32;20928;-71
2021/06/20 02:09:34;;;;;;;11.38;9.30;;;;;;;;;;4434703;32;20142;-71
2021/06/20 02:12:00;;;;;;;12.37;9.98;;;;;;;;;;4419323;32;20157;-70
2021/06/20 02:14:25;;;;;;;10.52;9.07;;;;;;;;;;4426398;32;20177;-70
2021/06/20 02:16:50;;;;;;;12.98;10.35;;;;;;;;;;4420917;32;20156;-70
2021/06/20 02:19:15;;;;;;;13.45;9.98;;;;;;;;;;4433838;32;20169;-70
2021/06/20 02:21:40;;;;;;;12.68;10.32;;;;;;;;;;4420230;32;20186;-69
2021/06/20 02:24:06;;;;;;;13.02;9.80;;;;;;;;;;4433251;32;20176;-70
2021/06/20 02:26:31;;;;;;;13.32;10.90;;;;;;;;;;4419032;32;20392;-69
2021/06/20 02:28:56;;;;;;;11.60;10.38;;;;;;;;;;4433722;32;20165;-70
2021/06/20 02:31:21;;;;;;;17.60;11.48;;;;;;;;;;4434586;32;20180;-70
2021/06/20 02:33:46;;;;;;;13.43;11.63;;;;;;;;;;4433061;32;20218;-71
2021/06/20 02:36:11;;;;;;;14.85;12.50;;;;;;;;;;4433224;32;20137;-71
2021/06/20 02:38:37;;;;;;;16.35;12.50;;;;;;;;;;4434827;32;20285;-71
2021/06/20 02:41:03;;;;;;;16.23;13.67;;;;;;;;;;4434734;32;20230;-71
2021/06/20 02:43:28;;;;;;;13.40;11.98;;;;;;;;;;4432808;32;20229;-71
2021/06/20 02:45:53;;;;;;;15.43;12.65;;;;;;;;;;4432595;32;20172;-70
2021/06/20 02:48:18;;;;;;;13.20;11.73;;;;;;;;;;4433854;32;20282;-70
2021/06/20 02:50:43;;;;;;;15.48;12.82;;;;;;;;;;4434274;32;20546;-70
2021/06/20 02:53:08;;;;;;;13.27;11.73;;;;;;;;;;4434414;32;20263;-70
2021/06/20 02:55:34;;;;;;;14.10;11.90;;;;;;;;;;4433239;32;20263;-70
2021/06/20 02:57:59;;;;;;;16.98;13.95;;;;;;;;;;4418597;32;20249;-70
2021/06/20 03:00:24;;;;;;;14.97;12.43;;;;;;;;;;4433092;32;20177;-70
2021/06/20 03:02:49;;;;;;;13.45;11.85;;;;;;;;;;4429472;32;20287;-69
2021/06/20 03:05:14;;;;;;;15.13;12.30;;;;;;;;;;4424679;32;20272;-69
2021/06/20 03:07:40;;;;;;;15.07;12.45;;;;;;;;;;4404139;32;20207;-70
2021/06/20 03:10:05;;;;;;;13.38;11.98;;;;;;;;;;4417466;32;20538;-70
2021/06/20 03:12:30;;;;;;;15.13;12.40;;;;;;;;;;4417561;32;20290;-70
2021/06/20 03:14:55;;;;;;;16.62;12.70;;;;;;;;;;4417378;32;20146;-69
2021/06/20 03:17:21;;;;;;;14.18;12.40;;;;;;;;;;4427051;32;20224;-70
2021/06/20 03:19:46;;;;;;;14.70;12.50;;;;;;;;;;4418012;32;20170;-69
2021/06/20 03:22:12;;;;;;;15.85;11.80;;;;;;;;;;4412947;32;20282;-69
2021/06/20 03:24:38;;;;;;;12.50;10.90;;;;;;;;;;4433695;32;20182;-70
2021/06/20 03:27:03;;;;;;;12.77;11.23;;;;;;;;;;4420342;32;20486;-69
2021/06/20 03:29:29;;;;;;;12.70;10.50;;;;;;;;;;4422016;32;20164;-70
2021/06/20 03:31:54;;;;;;;12.57;10.57;;;;;;;;;;4418758;32;20237;-70
2021/06/20 03:34:20;;;;;;;11.12;10.00;;;;;;;;;;4425398;32;20146;-70
2021/06/20 03:36:45;;;;;;;10.75;9.10;;;;;;;;;;4419178;32;20177;-70
2021/06/20 03:39:10;;;;;;;10.48;9.23;;;;;;;;;;4429495;32;20175;-70
2021/06/20 03:41:36;;;;;;;11.48;9.98;;;;;;;;;;4433761;32;20273;-70
2021/06/20 03:44:01;;;;;;;9.60;7.75;;;;;;;;;;4433596;32;20294;-69
2021/06/20 03:46:26;;;;;;;8.00;7.20;;;;;;;;;;4437497;32;20138;-70
2021/06/20 03:48:51;;;;;;;7.95;7.15;;;;;;;;;;4435501;32;20134;-69
2021/06/20 03:51:16;;;;;;;7.72;6.75;;;;;;;;;;4425998;32;20153;-70
2021/06/20 03:53:43;;;;;;;7.82;6.32;;;;;;;;;;4434107;32;20240;-70
2021/06/20 03:56:09;;;;;;;7.22;6.50;;;;;;;;;;4422207;32;20150;-70
2021/06/20 03:58:34;;;;;;;6.75;6.00;;;;;;;;;;4419725;32;20595;-70
2021/06/20 04:00:59;;;;;;;6.37;5.78;;;;;;;;;;4421185;32;20233;-69
2021/06/20 04:03:24;;;;;;;6.30;5.70;;;;;;;;;;4426269;32;20740;-69
2021/06/20 04:05:50;;;;;;;8.10;6.50;;;;;;;;;;4435038;32;20233;-70
2021/06/20 04:08:15;;;;;;;5.75;5.15;;;;;;;;;;4436577;32;20204;-70
2021/06/20 04:10:41;;;;;;;5.35;4.53;;;;;;;;;;4436256;32;20145;-69
2021/06/20 04:13:07;;;;;;;4.25;3.85;;;;;;;;;;4436109;32;20200;-70
2021/06/20 04:15:32;;;;;;;3.60;3.17;;;;;;;;;;4435037;32;20744;-70
2021/06/20 04:17:57;;;;;;;3.08;2.87;;;;;;;;;;4437132;32;20458;-70
2021/06/20 04:20:22;;;;;;;2.50;2.30;;;;;;;;;;4435984;32;20174;-69
2021/06/20 04:22:48;;;;;;;4.20;3.80;;;;;;;;;;4436705;32;20244;-69
2021/06/20 04:25:15;;;;;;;3.75;3.00;;;;;;;;;;4420502;32;20248;-68
2021/06/20 04:27:41;;;;;;;3.45;3.00;;;;;;;;;;4434896;32;20153;-69
2021/06/20 04:30:07;;;;;;;3.65;2.70;;;;;;;;;;4423602;32;20651;-70
2021/06/20 04:32:32;;;;;;;4.18;3.80;;;;;;;;;;4419265;32;20161;-69
2021/06/20 04:34:57;;;;;;;7.25;6.05;;;;;;;;;;4425565;32;20176;-69
2021/06/20 04:37:22;;;;;;;4.68;4.20;;;;;;;;;;4435174;32;20366;-69
2021/06/20 04:39:48;;;;;;;6.68;6.07;;;;;;;;;;4427007;32;20211;-69
2021/06/20 04:42:15;;;;;;;8.68;6.80;;;;;;;;;;4426172;32;20153;-69
2021/06/20 04:44:43;;;;;;;8.00;6.53;;;;;;;;;;4435619;32;20138;-69
2021/06/20 04:47:09;;;;;;;8.30;7.40;;;;;;;;;;4435178;32;20191;-70
2021/06/20 04:49:34;;;;;;;8.10;7.30;;;;;;;;;;4433950;32;20206;-70
2021/06/20 04:51:59;;;;;;;12.50;9.75;;;;;;;;;;4434021;32;20176;-70
2021/06/20 04:54:24;;;;;;;7.70;6.90;;;;;;;;;;4436045;32;20203;-70
2021/06/20 04:56:49;;;;;;;11.40;8.10;;;;;;;;;;4419724;32;20687;-70
2021/06/20 04:59:15;;;;;;;9.27;7.12;;;;;;;;;;4434810;32;20303;-69
2021/06/20 05:01:40;;;;;;;8.40;7.40;;;;;;;;;;4435751;32;20222;-70
2021/06/20 05:04:05;;;;;;;8.60;7.60;;;;;;;;;;4433989;32;20225;-69
2021/06/20 05:06:30;;;;;;;9.13;8.20;;;;;;;;;;4435400;32;20622;-70
2021/06/20 05:08:56;;;;;;;10.33;8.73;;;;;;;;;;4433706;32;20496;-70
2021/06/20 05:11:21;;;;;;;8.77;7.47;;;;;;;;;;4434508;32;20230;-70
2021/06/20 05:13:46;;;;;;;7.50;6.60;;;;;;;;;;4435456;32;20244;-69
2021/06/20 05:16:11;;;;;;;7.32;5.80;;;;;;;;;;4435116;32;20282;-69
2021/06/20 05:18:37;;;;;;;6.62;5.20;;;;;;;;;;4435249;32;20888;-70
2021/06/20 05:21:02;;;;;;;5.65;4.60;;;;;;;;;;4433769;32;20229;-70
2021/06/20 05:23:27;;;;;;;5.50;5.00;;;;;;;;;;4435395;32;20142;-70
2021/06/20 05:25:52;;;;;;;6.30;5.30;;;;;;;;;;4421385;32;20176;-70
2021/06/20 05:28:18;;;;;;;5.95;5.00;;;;;;;;;;4433571;32;20225;-70
2021/06/20 05:30:45;;;;;;;6.85;4.65;;;;;;;;;;4435348;32;20160;-70
2021/06/20 05:33:17;;;;;;;5.22;3.80;;;;;;;;;;4421077;32;20248;-70
2021/06/20 05:35:43;;;;;;;4.40;3.95;;;;;;;;;;4420818;32;20165;-70
2021/06/20 05:38:08;;;;;;;4.32;3.75;;;;;;;;;;4421029;32;20192;-70
2021/06/20 05:40:34;;;;;;;3.08;2.70;;;;;;;;;;4435041;32;20142;-70
2021/06/20 05:42:59;;;;;;;3.00;2.70;;;;;;;;;;4435102;32;20154;-70
2021/06/20 05:45:24;;;;;;;3.37;2.87;;;;;;;;;;4419187;32;20200;-70
2021/06/20 05:47:49;;;;;;;3.62;3.33;;;;;;;;;;4435101;32;20153;-70
2021/06/20 05:50:15;;;;;;;3.77;3.47;;;;;;;;;;4433189;32;20165;-70
2021/06/20 05:52:40;;;;;;;3.50;3.20;;;;;;;;;;4429770;32;20880;-71
2021/06/20 05:55:06;;;;;;;3.53;3.20;;;;;;;;;;4417985;32;20181;-71
2021/06/20 05:57:31;;;;;;;2.60;2.40;;;;;;;;;;4415180;32;20675;-71
2021/06/20 05:59:56;;;;;;;2.35;2.03;;;;;;;;;;4433620;32;20161;-70
2021/06/20 06:02:21;;;;;;;2.70;1.98;;;;;;;;;;4436147;32;20178;-70
2021/06/20 06:04:47;;;;;;;1.73;1.62;;;;;;;;;;4426604;32;20160;-70
2021/06/20 06:07:13;;;;;;;2.27;1.97;;;;;;;;;;4423030;32;20264;-70
2021/06/20 06:09:38;;;;;;;2.15;1.95;;;;;;;;;;4418141;32;20324;-70
2021/06/20 06:12:04;;;;;;;2.50;1.80;;;;;;;;;;4420998;32;20173;-72
2021/06/20 06:14:29;;;;;;;1.85;1.30;;;;;;;;;;4417204;32;20669;-72
2021/06/20 06:16:54;;;;;;;1.23;1.13;;;;;;;;;;4426324;32;20196;-72
2021/06/20 06:19:20;;;;;;;3.00;1.00;;;;;;;;;;4426546;32;20245;-72
2021/06/20 06:21:45;;;;;;;0.95;0.90;;;;;;;;;;4429260;32;20272;-72
2021/06/20 06:24:10;;;;;;;1.12;0.70;;;;;;;;;;4432691;32;20164;-72
2021/06/20 06:26:36;;;;;;;1.12;1.02;;;;;;;;;;4432697;32;20958;-73
2021/06/20 06:29:01;;;;;;;1.30;1.20;;;;;;;;;;4433995;32;20142;-72
2021/06/20 06:31:26;;;;;;;1.55;1.30;;;;;;;;;;4432065;32;20184;-73
2021/06/20 06:33:51;;;;;;;0.98;0.93;;;;;;;;;;4434463;32;20666;-73
2021/06/20 06:36:16;;;;;;;2.10;1.10;;;;;;;;;;4434922;32;20198;-73
2021/06/20 06:38:41;;;;;;;1.30;1.10;;;;;;;;;;4432818;32;20241;-72
2021/06/20 06:41:07;;;;;;;1.05;1.00;;;;;;;;;;4433750;32;20557;-72
2021/06/20 06:43:32;;;;;;;1.50;1.30;;;;;;;;;;4433664;32;20167;-72
2021/06/20 06:45:59;;;;;;;1.80;1.60;;;;;;;;;;4434659;32;20137;-72
2021/06/20 06:48:25;;;;;;;3.25;2.05;;;;;;;;;;4425993;32;20332;-72
2021/06/20 06:50:50;;;;;;;2.10;1.90;;;;;;;;;;4421139;32;20206;-73
2021/06/20 06:53:15;;;;;;;2.25;1.80;;;;;;;;;;4432337;32;20621;-76
2021/06/20 06:55:40;;;;;;;2.25;1.65;;;;;;;;;;4433536;32;20138;-74
2021/06/20 06:58:06;;;;;;;2.90;2.45;;;;;;;;;;4435092;32;20142;-72
2021/06/20 07:00:31;;;;;;;2.20;1.85;;;;;;;;;;4432458;32;20157;-72
2021/06/20 07:02:56;;;;;;;4.55;1.98;;;;;;;;;;4430817;32;20189;-73
2021/06/20 07:05:22;;;;;;;2.17;1.98;;;;;;;;;;4419319;32;20675;-73
2021/06/20 07:07:47;;;;;;;2.45;1.90;;;;;;;;;;4412893;32;20283;-72
2021/06/20 07:10:12;;;;;;;3.05;2.22;;;;;;;;;;4416229;32;20177;-73
2021/06/20 07:12:37;;;;;;;2.95;2.47;;;;;;;;;;4418243;32;20248;-74
2021/06/20 07:15:04;;;;;;;2.92;2.20;;;;;;;;;;4432179;32;20134;-74
2021/06/20 07:17:30;;;;;;;2.90;2.60;;;;;;;;;;4434002;32;20287;-73
2021/06/20 07:19:55;;;;;;;2.62;2.30;;;;;;;;;;4434037;32;20172;-73
2021/06/20 07:22:21;;;;;;;2.90;2.30;;;;;;;;;;4432603;32;20165;-73
2021/06/20 07:24:46;;;;;;;4.67;2.70;;;;;;;;;;4434149;32;20554;-74
2021/06/20 07:27:12;;;;;;;4.47;3.33;;;;;;;;;;4433820;32;20236;-73
2021/06/20 07:29:37;;;;;;;5.18;3.50;;;;;;;;;;4432568;32;20623;-73
2021/06/20 07:32:03;;;;;;;6.78;4.22;;;;;;;;;;4418326;32;20237;-73
2021/06/20 07:34:28;;;;;;;5.20;4.30;;;;;;;;;;4433849;32;20831;-74
2021/06/20 07:36:54;;;;;;;5.40;4.90;;;;;;;;;;4433816;32;20648;-74
2021/06/20 07:39:19;;;;;;;6.03;5.53;;;;;;;;;;4433660;32;20262;-73
2021/06/20 07:41:46;;;;;;;7.35;6.75;;;;;;;;;;4432445;32;20181;-73
2021/06/20 07:44:11;;;;;;;8.35;7.50;;;;;;;;;;4431997;32;20251;-74
2021/06/20 07:46:36;;;;;;;7.57;6.87;;;;;;;;;;4419680;32;20174;-73
2021/06/20 07:49:02;;;;;;;7.47;6.80;;;;;;;;;;4434193;32;20240;-73
2021/06/20 07:51:27;;;;;;;8.50;7.70;;;;;;;;;;4433151;32;20256;-73
2021/06/20 07:53:52;;;;;;;7.10;6.50;;;;;;;;;;4417877;32;20184;-74
2021/06/20 07:56:17;;;;;;;7.00;6.40;;;;;;;;;;4418194;32;20604;-74
2021/06/20 07:58:42;;;;;;;5.55;5.05;;;;;;;;;;4419810;32;20261;-74
2021/06/20 08:01:07;;;;;;;5.25;4.80;;;;;;;;;;4433104;32;20192;-74
2021/06/20 08:03:34;;;;;;;5.87;5.07;;;;;;;;;;4432601;32;20252;-73
2021/06/20 08:05:59;;;;;;;6.65;5.72;;;;;;;;;;4434342;32;20138;-73
2021/06/20 08:08:24;;;;;;;5.40;4.90;;;;;;;;;;4432249;32;20172;-73
2021/06/20 08:10:49;;;;;;;6.35;4.78;;;;;;;;;;4434005;32;20472;-73
2021/06/20 08:13:16;;;;;;;5.32;4.85;;;;;;;;;;4432112;32;20169;-73
2021/06/20 08:15:41;;;;;;;6.93;4.93;;;;;;;;;;4435290;32;20223;-73
2021/06/20 08:18:06;;;;;;;5.15;4.68;;;;;;;;;;4432731;32;20596;-74
2021/06/20 08:20:31;;;;;;;4.72;4.32;;;;;;;;;;4433355;32;20161;-75
2021/06/20 08:22:56;;;;;;;5.40;4.72;;;;;;;;;;4431762;32;20141;-73
2021/06/20 08:25:22;;;;;;;5.82;5.20;;;;;;;;;;4418154;32;20236;-73
2021/06/20 08:27:47;;;;;;;5.85;4.50;;;;;;;;;;4431666;32;20492;-73
2021/06/20 08:30:12;;;;;;;5.50;4.63;;;;;;;;;;4433689;32;20935;-72
2021/06/20 08:32:38;;;;;;;7.05;4.95;;;;;;;;;;4435260;32;20229;-72
2021/06/20 08:35:04;;;;;;;4.50;4.10;;;;;;;;;;4434240;32;20160;-73
2021/06/20 08:37:29;;;;;;;4.50;4.10;;;;;;;;;;4435993;32;20133;-73
2021/06/20 08:39:54;;;;;;;5.00;4.00;;;;;;;;;;4434503;32;20570;-72
2021/06/20 08:42:20;;;;;;;4.20;3.80;;;;;;;;;;4436257;32;20146;-73
2021/06/20 08:44:45;;;;;;;5.30;4.80;;;;;;;;;;4436498;32;20283;-74
2021/06/20 08:47:13;;;;;;;5.10;4.60;;;;;;;;;;4435008;32;20133;-74
2021/06/20 08:49:38;;;;;;;6.43;4.40;;;;;;;;;;4434860;32;20137;-74
2021/06/20 08:52:03;;;;;;;7.70;5.22;;;;;;;;;;4434832;32;20125;-73
2021/06/20 08:54:29;;;;;;;5.15;4.65;;;;;;;;;;4436572;32;20233;-76
2021/06/20 08:56:54;;;;;;;5.78;5.12;;;;;;;;;;4436688;32;20221;-76
2021/06/20 08:59:21;;;;;;;5.65;5.07;;;;;;;;;;4435044;32;20145;-77
2021/06/20 09:01:46;;;;;;;6.07;4.62;;;;;;;;;;4436965;32;20177;-77
2021/06/20 09:04:13;;;;;;;6.20;5.18;;;;;;;;;;4431042;32;20146;-77
2021/06/20 09:06:38;;;;;;;5.45;4.75;;;;;;;;;;4429711;32;20176;-77
2021/06/20 09:09:05;;;;;;;6.75;5.00;;;;;;;;;;4426518;32;21002;-75
2021/06/20 09:11:31;;;;;;;4.50;4.10;;;;;;;;;;4419493;32;21306;-76
2021/06/20 09:14:07;;;;;;;5.00;4.40;;;;;;;;;;4426203;32;20199;-75
2021/06/20 09:16:33;;;;;;;5.90;4.20;;;;;;;;;;4426987;32;20658;-75
2021/06/20 09:18:59;;;;;;;6.45;4.37;;;;;;;;;;4420427;32;20927;-74
2021/06/20 09:21:25;;;;;;;4.43;3.70;;;;;;;;;;4433893;32;20130;-76
2021/06/20 09:23:51;;;;;;;6.15;4.37;;;;;;;;;;4429544;32;20164;-75
2021/06/20 09:26:17;;;;;;;9.13;4.53;;;;;;;;;;4409291;32;20765;-76
2021/06/20 09:28:46;;;;;;;7.53;5.28;;;;;;;;;;4411179;32;20216;-76
2021/06/20 09:31:11;;;;;;;8.82;5.47;;;;;;;;;;4424749;32;20176;-77
2021/06/20 09:33:36;;;;;;;5.70;4.15;;;;;;;;;;4426120;32;20596;-76
2021/06/20 09:36:02;;;;;;;6.70;4.60;;;;;;;;;;4412365;32;20299;-76
2021/06/20 09:38:29;;;;;;;5.32;3.90;;;;;;;;;;4405796;32;20269;-76
2021/06/20 09:41:20;;;;;;;7.82;5.10;;;;;;;;;;4411507;32;21272;-76
2021/06/20 09:43:55;;;;;;;6.18;3.90;;;;;;;;;;4406142;32;20522;-76
2021/06/20 09:46:21;;;;;;;6.75;4.62;;;;;;;;;;4411200;32;20192;-75
2021/06/20 09:48:47;;;;;;;7.18;4.35;;;;;;;;;;4397266;32;20514;-77
2021/06/20 09:51:13;;;;;;;6.97;4.20;;;;;;;;;;4411069;32;20164;-76
2021/06/20 09:53:40;;;;;;;7.28;4.30;;;;;;;;;;4409241;32;20897;-75
2021/06/20 09:56:21;;;;;;;6.93;3.87;;;;;;;;;;4394612;32;20165;-74
2021/06/20 09:58:55;;;;;;;6.37;3.90;;;;;;;;;;4408840;32;20142;-73
2021/06/20 10:01:21;;;;;;;5.82;3.50;;;;;;;;;;4408651;32;20214;-73
2021/06/20 10:03:47;;;;;;;4.40;2.97;;;;;;;;;;4406548;32;20268;-74
2021/06/20 10:06:13;;;;;;;4.10;3.22;;;;;;;;;;4408402;32;20153;-72
2021/06/20 10:08:38;;;;;;;4.30;2.37;;;;;;;;;;4400725;32;20181;-72
2021/06/20 10:11:03;;;;;;;4.37;2.97;;;;;;;;;;4407081;32;20181;-72
2021/06/20 10:13:29;;;;;;;4.03;2.37;;;;;;;;;;4416700;32;20180;-72
2021/06/20 10:15:55;;;;;;;3.53;2.10;;;;;;;;;;4407208;32;20487;-72
2021/06/20 10:18:20;;;;;;;2.00;1.77;;;;;;;;;;4421824;32;20169;-73
2021/06/20 10:20:46;;;;;;;3.00;2.30;;;;;;;;;;4406928;32;20239;-72
2021/06/20 10:23:23;;;;;;;3.25;2.00;;;;;;;;;;4403084;32;20267;-73
2021/06/20 10:25:48;;;;;;;3.28;2.05;;;;;;;;;;4416792;32;20538;-72
2021/06/20 10:28:15;;;;;;;4.28;2.03;;;;;;;;;;4410576;32;20282;-72
2021/06/20 10:30:42;;;;;;;4.05;2.60;;;;;;;;;;4421788;32;20646;-71
2021/06/20 10:33:12;;;;;;;4.57;2.65;;;;;;;;;;4418970;32;20165;-72
2021/06/20 10:35:37;;;;;;;3.00;2.05;;;;;;;;;;4423940;32;20184;-73
2021/06/20 10:38:03;;;;;;;3.20;2.30;;;;;;;;;;4424914;32;20212;-73
2021/06/20 10:40:29;;;;;;;4.07;2.37;;;;;;;;;;4423423;32;20210;-72
2021/06/20 10:42:56;;;;;;;2.22;2.00;;;;;;;;;;4422712;32;20165;-72
2021/06/20 10:45:26;;;;;;;4.43;2.50;;;;;;;;;;4424496;32;20198;-72
2021/06/20 10:47:52;;;;;;;4.65;2.90;;;;;;;;;;4423338;32;20181;-71
2021/06/20 10:50:17;;;;;;;4.62;2.60;;;;;;;;;;4425806;32;20165;-72
2021/06/20 10:52:55;;;;;;;4.55;2.67;;;;;;;;;;4423617;32;20153;-72
2021/06/20 10:55:20;;;;;;;3.37;2.80;;;;;;;;;;4407631;32;20226;-73
2021/06/20 10:57:47;;;;;;;3.00;2.33;;;;;;;;;;4424175;32;21074;-73
2021/06/20 11:00:24;;;;;;;3.30;2.78;;;;;;;;;;4421957;32;20165;-73
2021/06/20 11:02:49;;;;;;;3.37;2.37;;;;;;;;;;4421402;32;20206;-73
2021/06/20 11:05:20;;;;;;;3.40;2.53;;;;;;;;;;4421858;32;20143;-73
2021/06/20 11:07:45;;;;;;;5.68;2.65;;;;;;;;;;4420947;32;20249;-73
2021/06/20 11:10:20;;;;;;;2.75;2.15;;;;;;;;;;4423039;32;20169;-73
2021/06/20 11:12:52;;;;;;;3.12;2.42;;;;;;;;;;4424507;32;20156;-72
2021/06/20 11:15:27;;;;;;;4.30;2.65;;;;;;;;;;4423476;32;21036;-73
2021/06/20 11:18:03;;;;;;;4.65;3.00;;;;;;;;;;4421596;32;20489;-73
2021/06/20 11:20:28;;;;;;;3.28;2.90;;;;;;;;;;4422849;32;20264;-73
2021/06/20 11:22:55;;;;;;;4.40;3.00;;;;;;;;;;4420559;32;20161;-73
2021/06/20 11:25:24;;;;;;;4.68;2.80;;;;;;;;;;4421556;32;20148;-74
2021/06/20 11:27:50;;;;;;;5.60;2.47;;;;;;;;;;4422188;32;20215;-73
2021/06/20 11:30:19;;;;;;;4.68;2.70;;;;;;;;;;4421818;32;21181;-73
2021/06/20 11:32:44;;;;;;;2.80;2.30;;;;;;;;;;4423215;32;20146;-71
2021/06/20 11:35:13;;;;;;;3.10;2.50;;;;;;;;;;4420821;32;20187;-73
2021/06/20 11:37:42;;;;;;;4.05;2.28;;;;;;;;;;4421871;32;20157;-73
2021/06/20 11:40:08;;;;;;;3.17;2.12;;;;;;;;;;4420926;32;20592;-73
2021/06/20 11:42:35;;;;;;;4.28;2.70;;;;;;;;;;4407233;32;20165;-72
2021/06/20 11:45:03;;;;;;;7.28;4.00;;;;;;;;;;4422502;32;20156;-72
2021/06/20 11:47:29;;;;;;;3.75;2.60;;;;;;;;;;4422482;32;20158;-71
2021/06/20 11:49:55;;;;;;;4.50;2.90;;;;;;;;;;4423769;32;20221;-72
2021/06/20 11:52:24;;;;;;;4.87;3.08;;;;;;;;;;4423933;32;20192;-72
2021/06/20 11:55:04;;;;;;;5.80;3.03;;;;;;;;;;4407029;32;20863;-71
2021/06/20 11:57:29;;;;;;;4.43;3.15;;;;;;;;;;4422838;32;20179;-72
2021/06/20 11:59:54;;;;;;;2.95;2.62;;;;;;;;;;4414766;32;20165;-71
2021/06/20 12:02:19;;;;;;;4.18;2.65;;;;;;;;;;4421666;32;20180;-71
2021/06/20 12:04:45;;;;;;;4.87;3.20;;;;;;;;;;4409557;32;20595;-71
2021/06/20 12:07:11;;;;;;;4.28;2.60;;;;;;;;;;4424876;32;20307;-71
2021/06/20 12:09:36;;;;;;;4.30;2.92;;;;;;;;;;4424219;32;20181;-71
2021/06/20 12:12:03;;;;;;;3.62;2.90;;;;;;;;;;4425529;32;20175;-72
2021/06/20 12:14:30;;;;;;;3.20;2.90;;;;;;;;;;4424646;32;20206;-71
2021/06/20 12:16:55;;;;;;;4.25;3.10;;;;;;;;;;4424763;32;20142;-71
2021/06/20 12:19:22;;;;;;;4.30;3.05;;;;;;;;;;4406419;32;20185;-72
2021/06/20 12:21:49;;;;;;;5.07;3.90;;;;;;;;;;4408229;32;20181;-72
2021/06/20 12:24:14;;;;;;;3.67;3.10;;;;;;;;;;4414385;32;20158;-72
2021/06/20 12:26:48;;;;;;;5.05;3.60;;;;;;;;;;4409996;32;20199;-71
2021/06/20 12:29:13;;;;;;;6.53;4.55;;;;;;;;;;4423507;32;20184;-72
2021/06/20 12:31:38;;;;;;;3.70;3.40;;;;;;;;;;4410120;32;20527;-72
2021/06/20 12:34:06;;;;;;;5.37;3.70;;;;;;;;;;4426216;32;20513;-71
2021/06/20 12:36:31;;;;;;;6.25;5.20;;;;;;;;;;4426200;32;20248;-71
2021/06/20 12:38:58;;;;;;;5.40;4.03;;;;;;;;;;4427434;32;20146;-72
2021/06/20 12:41:26;;;;;;;4.32;3.58;;;;;;;;;;4427213;32;20153;-70
2021/06/20 12:44:01;;;;;;;4.25;3.60;;;;;;;;;;4428179;32;20402;-71
2021/06/20 12:46:30;;;;;;;5.80;3.92;;;;;;;;;;4412300;32;20238;-71
2021/06/20 12:48:56;;;;;;;4.43;4.03;;;;;;;;;;4428125;32;21190;-72
2021/06/20 12:51:32;;;;;;;4.95;4.37;;;;;;;;;;4424787;32;20162;-70
2021/06/20 12:54:01;;;;;;;5.18;4.10;;;;;;;;;;4419680;32;20195;-71
2021/06/20 12:56:27;;;;;;;7.55;4.75;;;;;;;;;;4426879;32;20145;-72
2021/06/20 12:58:56;;;;;;;5.32;4.60;;;;;;;;;;4422914;32;20213;-72
2021/06/20 13:01:21;;;;;;;5.32;4.45;;;;;;;;;;4410368;32;20590;-72
2021/06/20 13:03:46;;;;;;;5.50;4.68;;;;;;;;;;4414600;32;20180;-71
2021/06/20 13:06:12;;;;;;;5.87;4.57;;;;;;;;;;4410007;32;20634;-71
2021/06/20 13:08:37;;;;;;;5.60;4.70;;;;;;;;;;4421515;32;20150;-70
2021/06/20 13:11:03;;;;;;;5.85;5.00;;;;;;;;;;4407460;32;20172;-71
2021/06/20 13:13:28;;;;;;;7.03;5.32;;;;;;;;;;4421288;32;20221;-72
2021/06/20 13:15:57;;;;;;;8.00;6.07;;;;;;;;;;4408790;32;20187;-71
2021/06/20 13:18:22;;;;;;;6.80;5.62;;;;;;;;;;4408134;32;20215;-71
2021/06/20 13:20:47;;;;;;;7.50;6.00;;;;;;;;;;4414657;32;20923;-71
2021/06/20 13:23:13;;;;;;;7.77;6.67;;;;;;;;;;4422826;32;20632;-72
2021/06/20 13:25:39;;;;;;;6.45;5.47;;;;;;;;;;4408605;32;20307;-71
2021/06/20 13:28:05;;;;;;;7.57;6.78;;;;;;;;;;4423425;32;20149;-72
2021/06/20 13:30:30;;;;;;;7.07;6.37;;;;;;;;;;4423837;32;20486;-72
2021/06/20 13:32:55;;;;;;;7.47;6.72;;;;;;;;;;4422592;32;20614;-72
2021/06/20 13:35:21;;;;;;;10.93;8.70;;;;;;;;;;4408840;32;20257;-72
2021/06/20 13:37:47;;;;;;;9.07;7.30;;;;;;;;;;4422314;32;20272;-72
2021/06/20 13:40:17;;;;;;;8.77;6.20;;;;;;;;;;4408837;32;20191;-72
2021/06/20 13:42:43;;;;;;;7.12;6.32;;;;;;;;;;4407724;32;20185;-72
2021/06/20 13:45:09;;;;;;;8.75;7.90;;;;;;;;;;4423176;32;20185;-72
2021/06/20 13:47:34;;;;;;;7.20;6.50;;;;;;;;;;4424368;32;21069;-72
2021/06/20 13:50:00;;;;;;;9.27;7.45;;;;;;;;;;4423749;32;20259;-72
2021/06/20 13:52:25;;;;;;;9.13;8.05;;;;;;;;;;4421282;32;20229;-72
2021/06/20 13:54:55;;;;;;;9.50;7.57;;;;;;;;;;4418601;32;20162;-72
2021/06/20 13:57:24;;;;;;;8.85;7.05;;;;;;;;;;4406380;32;20579;-72
2021/06/20 13:59:49;;;;;;;8.65;7.75;;;;;;;;;;4407817;32;20182;-73
2021/06/20 14:02:15;;;;;;;8.45;5.97;;;;;;;;;;4423417;32;20176;-72
2021/06/20 14:04:40;;;;;;;10.77;7.05;;;;;;;;;;4423719;32;20188;-71
2021/06/20 14:07:05;;;;;;;8.43;6.62;;;;;;;;;;4422102;32;20213;-71
2021/06/20 14:09:30;;;;;;;7.25;5.97;;;;;;;;;;4422165;32;20164;-71
2021/06/20 14:11:56;;;;;;;8.98;6.45;;;;;;;;;;4423207;32;20502;-71
2021/06/20 14:14:21;;;;;;;8.73;5.68;;;;;;;;;;4424950;32;20154;-71
2021/06/20 14:16:46;;;;;;;7.18;6.12;;;;;;;;;;4424067;32;20180;-72
2021/06/20 14:19:11;;;;;;;8.23;5.62;;;;;;;;;;4412418;32;20194;-72
2021/06/20 14:21:36;;;;;;;8.68;6.28;;;;;;;;;;4423238;32;20233;-71
2021/06/20 14:24:02;;;;;;;9.27;6.90;;;;;;;;;;4419902;32;20193;-71
2021/06/20 14:26:27;;;;;;;8.52;6.18;;;;;;;;;;4424623;32;20168;-71
2021/06/20 14:28:53;;;;;;;7.35;6.30;;;;;;;;;;4423685;32;20222;-72